NCAR-RAP Real-Time Weather Data

Output produced by METARs form (17 November 2017  17:46 UTC)
found at http://weather.rap.ucar.edu/surface/
 
Conditions at: KPIE observed 17 November 2017  16:53 UTC
Temperature: 22.8°C (73°F)
Dewpoint: 12.8°C (55°F) [RH = 53%]
Pressure (altimeter): 30.10 inches Hg (1019.4 mb)
[Sea-level pressure: 1019.3 mb]
Winds: variable direction winds at 6 MPH (5 knots; 2.6 m/s)
Visibility: 10 or more miles (16+ km)
Ceiling: at least 12,000 feet AGL
Clouds: sky clear below 12,000 feet AGL
Present Weather: no significant weather observed at this time
KPIE 171653Z VRB05KT 10SM CLR 23/13 A3010 RMK AO2 SLP193 T02280128

Conditions at: KPIE observed 17 November 2017  15:53 UTC
Temperature: 21.7°C (71°F)
Dewpoint: 12.2°C (54°F) [RH = 55%]
Pressure (altimeter): 30.11 inches Hg (1019.7 mb)
[Sea-level pressure: 1019.6 mb]
Winds: from the ENE (60 degrees) at 8 MPH (7 knots; 3.6 m/s)
Visibility: 10 or more miles (16+ km)
Ceiling: at least 12,000 feet AGL
Clouds: sky clear below 12,000 feet AGL
Present Weather: no significant weather observed at this time
KPIE 171553Z 06007KT 10SM R18L/1000VP6000FT CLR 22/12 A3011 RMK AO2 SLP196 T02170122

Conditions at: KPIE observed 17 November 2017  14:53 UTC
Temperature: 20.6°C (69°F)
Dewpoint: 11.7°C (53°F) [RH = 57%]
Pressure (altimeter): 30.12 inches Hg (1020.1 mb)
[Sea-level pressure: 1019.9 mb]
Winds: from the NE (40 degrees) at 9 MPH (8 knots; 4.2 m/s)
Visibility: 10 or more miles (16+ km)
Ceiling: at least 12,000 feet AGL
Clouds: sky clear below 12,000 feet AGL
Present Weather: no significant weather observed at this time
KPIE 171453Z 04008KT 10SM CLR 21/12 A3012 RMK AO2 SLP199 T02060117 51009

Conditions at: KPIE observed 17 November 2017  13:53 UTC
Temperature: 18.9°C (66°F)
Dewpoint: 11.7°C (53°F) [RH = 63%]
Pressure (altimeter): 30.12 inches Hg (1020.1 mb)
[Sea-level pressure: 1019.7 mb]
Winds: from the NNE (30 degrees) at 7 MPH (6 knots; 3.1 m/s)
Visibility: 10 or more miles (16+ km)
Ceiling: at least 12,000 feet AGL
Clouds: sky clear below 12,000 feet AGL
Present Weather: no significant weather observed at this time
KPIE 171353Z 03006KT 10SM CLR 19/12 A3012 RMK AO2 SLP197 T01890117

Conditions at: KPIE observed 17 November 2017  12:53 UTC
Temperature: 17.2°C (63°F)
Dewpoint: 11.7°C (53°F) [RH = 70%]
Pressure (altimeter): 30.11 inches Hg (1019.7 mb)
[Sea-level pressure: 1019.5 mb]
Winds: from the NE (40 degrees) at 8 MPH (7 knots; 3.6 m/s)
Visibility: 10 or more miles (16+ km)
Ceiling: at least 12,000 feet AGL
Clouds: few clouds at 2800 feet AGL
Present Weather: no significant weather observed at this time
KPIE 171253Z 04007KT 10SM FEW028 17/12 A3011 RMK AO2 SLP195 T01720117

Conditions at: KPIE observed 17 November 2017  11:53 UTC
Temperature: 17.2°C (63°F)
Dewpoint: 11.1°C (52°F) [RH = 67%]
Pressure (altimeter): 30.09 inches Hg (1019.0 mb)
[Sea-level pressure: 1018.9 mb]
Winds: from the NE (50 degrees) at 9 MPH (8 knots; 4.2 m/s)
Visibility: 10 or more miles (16+ km)
Ceiling: at least 12,000 feet AGL
Clouds: sky clear below 12,000 feet AGL
Present Weather: no significant weather observed at this time
KPIE 171153Z 05008KT 10SM CLR 17/11 A3009 RMK AO2 SLP189 T01720111 10178 20167 53007

Conditions at: KPIE observed 17 November 2017  10:53 UTC
Temperature: 16.7°C (62°F)
Dewpoint: 11.7°C (53°F) [RH = 72%]
Pressure (altimeter): 30.08 inches Hg (1018.7 mb)
[Sea-level pressure: 1018.4 mb]
Winds: from the NE (50 degrees) at 9 MPH (8 knots; 4.2 m/s)
Visibility: 10 or more miles (16+ km)
Ceiling: at least 12,000 feet AGL
Clouds: sky clear below 12,000 feet AGL
Present Weather: no significant weather observed at this time
KPIE 171053Z 05008KT 10SM CLR 17/12 A3008 RMK AO2 SLP184 T01670117

Conditions at: KPIE observed 17 November 2017  09:53 UTC
Temperature: 17.2°C (63°F)
Dewpoint: 12.2°C (54°F) [RH = 72%]
Pressure (altimeter): 30.08 inches Hg (1018.7 mb)
[Sea-level pressure: 1018.4 mb]
Winds: from the NE (40 degrees) at 8 MPH (7 knots; 3.6 m/s)
Visibility: 10 or more miles (16+ km)
Ceiling: 4100 feet AGL
Clouds: broken clouds at 4100 feet AGL
Present Weather: automated observation with no human augmentation;
there may or may not be significant weather present at this time
KPIE 170953Z AUTO 04007KT 10SM BKN041 17/12 A3008 RMK AO2 SLP184 T01720122

Conditions at: KPIE observed 17 November 2017  08:53 UTC
Temperature: 17.8°C (64°F)
Dewpoint: 12.2°C (54°F) [RH = 70%]
Pressure (altimeter): 30.07 inches Hg (1018.4 mb)
[Sea-level pressure: 1018.2 mb]
Winds: from the NE (50 degrees) at 7 MPH (6 knots; 3.1 m/s)
Visibility: 10 or more miles (16+ km)
Ceiling: 4200 feet AGL
Clouds: overcast cloud deck at 4200 feet AGL
Present Weather: automated observation with no human augmentation;
there may or may not be significant weather present at this time
KPIE 170853Z AUTO 05006KT 10SM OVC042 18/12 A3007 RMK AO2 SLP182 T01780122 57001

Conditions at: KPIE observed 17 November 2017  07:53 UTC
Temperature: 17.2°C (63°F)
Dewpoint: 12.2°C (54°F) [RH = 72%]
Pressure (altimeter): 30.07 inches Hg (1018.4 mb)
[Sea-level pressure: 1018.3 mb]
Winds: from the ENE (60 degrees) at 7 MPH (6 knots; 3.1 m/s)
Visibility: 10 or more miles (16+ km)
Ceiling: at least 12,000 feet AGL
Clouds: sky clear below 12,000 feet AGL
Present Weather: automated observation with no human augmentation;
there may or may not be significant weather present at this time
KPIE 170753Z AUTO 06006KT 10SM CLR 17/12 A3007 RMK AO2 SLP183 T01720122

Conditions at: KPIE observed 17 November 2017  06:53 UTC
Temperature: 17.2°C (63°F)
Dewpoint: 12.2°C (54°F) [RH = 72%]
Pressure (altimeter): 30.07 inches Hg (1018.4 mb)
[Sea-level pressure: 1018.3 mb]
Winds: from the E (80 degrees) at 8 MPH (7 knots; 3.6 m/s)
Visibility: 10 or more miles (16+ km)
Ceiling: at least 12,000 feet AGL
Clouds: sky clear below 12,000 feet AGL
Present Weather: automated observation with no human augmentation;
there may or may not be significant weather present at this time
KPIE 170653Z AUTO 08007KT 10SM CLR 17/12 A3007 RMK AO2 SLP183 T01720122

Conditions at: KPIE observed 17 November 2017  05:53 UTC
Temperature: 17.8°C (64°F)
Dewpoint: 12.2°C (54°F) [RH = 70%]
Pressure (altimeter): 30.07 inches Hg (1018.4 mb)
[Sea-level pressure: 1018.4 mb]
Winds: from the ENE (60 degrees) at 7 MPH (6 knots; 3.1 m/s)
Visibility: 10 or more miles (16+ km)
Ceiling: at least 12,000 feet AGL
Clouds: sky clear below 12,000 feet AGL
Present Weather: automated observation with no human augmentation;
there may or may not be significant weather present at this time
KPIE 170553Z AUTO 06006KT 10SM CLR 18/12 A3007 RMK AO2 SLP184 T01780122 10194 20178 58001

Conditions at: KPIE observed 17 November 2017  04:53 UTC
Temperature: 18.3°C (65°F)
Dewpoint: 12.2°C (54°F) [RH = 68%]
Pressure (altimeter): 30.08 inches Hg (1018.7 mb)
[Sea-level pressure: 1018.6 mb]
Winds: from the NE (50 degrees) at 7 MPH (6 knots; 3.1 m/s)
Visibility: 10 or more miles (16+ km)
Ceiling: at least 12,000 feet AGL
Clouds: sky clear below 12,000 feet AGL
Present Weather: automated observation with no human augmentation;
there may or may not be significant weather present at this time
KPIE 170453Z AUTO 05006KT 10SM CLR 18/12 A3008 RMK AO2 SLP186 T01830122 402440161

Conditions at: KPIE observed 17 November 2017  03:53 UTC
Temperature: 18.9°C (66°F)
Dewpoint: 10.6°C (51°F) [RH = 59%]
Pressure (altimeter): 30.08 inches Hg (1018.7 mb)
[Sea-level pressure: 1018.5 mb]
Winds: from the NE (50 degrees) at 8 MPH (7 knots; 3.6 m/s)
Visibility: 10 or more miles (16+ km)
Ceiling: at least 12,000 feet AGL
Clouds: sky clear below 12,000 feet AGL
Present Weather: no significant weather observed at this time
KPIE 170353Z 05007KT 10SM CLR 19/11 A3008 RMK AO2 SLP185 T01890106

Conditions at: KPIE observed 17 November 2017  02:53 UTC
Temperature: 18.9°C (66°F)
Dewpoint: 11.7°C (53°F) [RH = 63%]
Pressure (altimeter): 30.08 inches Hg (1018.7 mb)
[Sea-level pressure: 1018.5 mb]
Winds: from the NNE (20 degrees) at 8 MPH (7 knots; 3.6 m/s)
Visibility: 10 or more miles (16+ km)
Ceiling: at least 12,000 feet AGL
Clouds: sky clear below 12,000 feet AGL
Present Weather: no significant weather observed at this time
KPIE 170253Z 02007KT 10SM CLR 19/12 A3008 RMK AO2 SLP185 T01890117 53013

Conditions at: KPIE observed 17 November 2017  01:53 UTC
Temperature: 18.3°C (65°F)
Dewpoint: 13.3°C (56°F) [RH = 73%]
Pressure (altimeter): 30.07 inches Hg (1018.4 mb)
[Sea-level pressure: 1018.0 mb]
Winds: from the N (360 degrees) at 6 MPH (5 knots; 2.6 m/s)
Visibility: 10 or more miles (16+ km)
Ceiling: at least 12,000 feet AGL
Clouds: sky clear below 12,000 feet AGL
Present Weather: no significant weather observed at this time
KPIE 170153Z 36005KT 10SM CLR 18/13 A3007 RMK AO2 SLP180 T01830133

Conditions at: KPIE observed 17 November 2017  00:53 UTC
Temperature: 18.9°C (66°F)
Dewpoint: 12.8°C (55°F) [RH = 68%]
Pressure (altimeter): 30.05 inches Hg (1017.7 mb)
[Sea-level pressure: 1017.6 mb]
Winds: from the N (360 degrees) at 7 MPH (6 knots; 3.1 m/s)
Visibility: 10 or more miles (16+ km)
Ceiling: at least 12,000 feet AGL
Clouds: sky clear below 12,000 feet AGL
Present Weather: no significant weather observed at this time
KPIE 170053Z 36006KT 10SM CLR 19/13 A3005 RMK AO2 SLP176 T01890128

Conditions at: KPIE observed 16 November 2017  23:53 UTC
Temperature: 18.9°C (66°F)
Dewpoint: 12.2°C (54°F) [RH = 65%]
Pressure (altimeter): 30.04 inches Hg (1017.4 mb)
[Sea-level pressure: 1017.2 mb]
Winds: from the N (350 degrees) at 9 MPH (8 knots; 4.2 m/s)
Visibility: 10 or more miles (16+ km)
Ceiling: at least 12,000 feet AGL
Clouds: sky clear below 12,000 feet AGL
Present Weather: no significant weather observed at this time
KPIE 162353Z 35008KT 10SM CLR 19/12 A3004 RMK AO2 SLP172 T01890122 10244 20189 53016

Conditions at: KPIE observed 16 November 2017  22:53 UTC
Temperature: 19.4°C (67°F)
Dewpoint: 11.7°C (53°F) [RH = 61%]
Pressure (altimeter): 30.02 inches Hg (1016.7 mb)
[Sea-level pressure: 1016.5 mb]
Winds: from the NNW (340 degrees) at 10 MPH (9 knots; 4.7 m/s)
Visibility: 10 or more miles (16+ km)
Ceiling: at least 12,000 feet AGL
Clouds: sky clear below 12,000 feet AGL
Present Weather: no significant weather observed at this time
KPIE 162253Z 34009KT 10SM CLR 19/12 A3002 RMK AO2 SLP165 T01940117

Conditions at: KPIE observed 16 November 2017  21:53 UTC
Temperature: 21.7°C (71°F)
Dewpoint: 12.8°C (55°F) [RH = 57%]
Pressure (altimeter): 30.00 inches Hg (1016.0 mb)
[Sea-level pressure: 1015.9 mb]
Winds: from the N (350 degrees) at 10 MPH (9 knots; 4.7 m/s)
Visibility: 10 or more miles (16+ km)
Ceiling: at least 12,000 feet AGL
Clouds: sky clear below 12,000 feet AGL
Present Weather: no significant weather observed at this time
KPIE 162153Z 35009KT 10SM CLR 22/13 A3000 RMK AO2 SLP159 T02170128

Conditions at: KPIE observed 16 November 2017  20:53 UTC
Temperature: 22.2°C (72°F)
Dewpoint: 13.9°C (57°F) [RH = 59%]
Pressure (altimeter): 29.99 inches Hg (1015.7 mb)
[Sea-level pressure: 1015.6 mb]
Winds: from the NW (320 degrees) at 9 MPH (8 knots; 4.2 m/s)
Visibility: 10 or more miles (16+ km)
Ceiling: at least 12,000 feet AGL
Clouds: sky clear below 12,000 feet AGL
Present Weather: no significant weather observed at this time
KPIE 162053Z 32008KT 10SM CLR 22/14 A2999 RMK AO2 SLP156 T02220139 55008

Conditions at: KPIE observed 16 November 2017  19:53 UTC
Temperature: 23.3°C (74°F)
Dewpoint: 14.4°C (58°F) [RH = 57%]
Pressure (altimeter): 29.99 inches Hg (1015.7 mb)
[Sea-level pressure: 1015.4 mb]
Winds: from the NW (320 degrees) at 8 MPH (7 knots; 3.6 m/s)
Visibility: 10 or more miles (16+ km)
Ceiling: at least 12,000 feet AGL
Clouds: sky clear below 12,000 feet AGL
Present Weather: automated observation with no human augmentation;
there may or may not be significant weather present at this time
KPIE 161953Z AUTO 32007KT 10SM CLR 23/14 A2999 RMK AO2 SLP154 T02330144

Conditions at: KPIE observed 16 November 2017  18:53 UTC
Temperature: 23.3°C (74°F)
Dewpoint: 13.3°C (56°F) [RH = 53%]
Pressure (altimeter): 30.00 inches Hg (1016.0 mb)
[Sea-level pressure: 1015.8 mb]
Winds: from the N (360 degrees) at 7 MPH (6 knots; 3.1 m/s)
Visibility: 10 or more miles (16+ km)
Ceiling: at least 12,000 feet AGL
Clouds: sky clear below 12,000 feet AGL
Present Weather: no significant weather observed at this time
KPIE 161853Z 36006KT 10SM CLR 23/13 A3000 RMK AO2 SLP158 T02330133

Conditions at: KPIE observed 16 November 2017  17:53 UTC
Temperature: 23.3°C (74°F)
Dewpoint: 13.9°C (57°F) [RH = 56%]
Pressure (altimeter): 30.02 inches Hg (1016.7 mb)
[Sea-level pressure: 1016.4 mb]
Winds: from the NNE (20 degrees) at 7 MPH (6 knots; 3.1 m/s)
Visibility: 10 or more miles (16+ km)
Ceiling: at least 12,000 feet AGL
Clouds: sky clear below 12,000 feet AGL
Present Weather: no significant weather observed at this time
KPIE 161753Z 02006KT 10SM CLR 23/14 A3002 RMK AO2 SLP164 T02330139 10233 20161 58022